Murphysville, Kentucky
Current Conditions -  °F | °C
As of 9:15 PM on Thursday 20 Nov 2014 (Local Time) from KFGX Reporting Station
Clear Clear  
Wind Chill: 13°   Ceiling: Unl
Heat Index: 23°   Visibility: 10mi
Dew Point: 15°   Wind: 9mph
Humidity: 71%   Direction: 280°W
Pressure: 30.24"   Gusts: NA
Location:  38.585°N, 83.7789°W
Report Text: KFGX 210215Z AUTO 28008KT 10SM CLR M05/M09 A3024 RMK AO2 T10501095
Loading
Personal Weather Stations






























Interactive Weather Map New forecast layout! Learn more

10-Day Weather Forecast

Advertisements
Track Severe Weather on mobile